Time;durP1;ratioP1;P1;durP2;ratioP2;P2;SDS_P1;SDS_P2;PMS_P1;PMS_P2;Temp;Humidity;BMP_temperature;BMP_pressure;BME280_temperature;BME280_humidity;BME280_pressure;Samples;Min_cycle;Max_cycle;Signal;HPM_P1;HPM_P2
2021/10/08 00:01:38;;;;;;;;;;;7.60;97.20;;;;;;4992504;28;19909;-69
2021/10/08 00:04:03;;;;;;;;;;;7.60;97.30;;;;;;5002474;28;19925;-68
2021/10/08 00:06:29;;;;;;;;;;;7.60;97.30;;;;;;4996277;28;20024;-68
2021/10/08 00:08:54;;;;;;;;;;;7.50;97.30;;;;;;5003017;28;19917;-69
2021/10/08 00:11:20;;;;;;;;;;;7.60;97.40;;;;;;4998785;28;19952;-68
2021/10/08 00:13:46;;;;;;;;;;;7.60;97.40;;;;;;4993195;28;19909;-68
2021/10/08 00:16:12;;;;;;;;;;;7.50;97.40;;;;;;4994372;28;20539;-69
2021/10/08 00:18:38;;;;;;;;;;;7.50;97.50;;;;;;4996407;28;20005;-69
2021/10/08 00:21:04;;;;;;;;;;;7.50;97.50;;;;;;4996163;28;20016;-68
2021/10/08 00:23:30;;;;;;;;;;;7.50;97.50;;;;;;4990358;28;19910;-68
2021/10/08 00:25:56;;;;;;;;;;;7.50;97.60;;;;;;4996472;28;19909;-69
2021/10/08 00:28:21;;;;;;;;;;;7.50;97.60;;;;;;4998732;28;19917;-68
2021/10/08 00:30:47;;;;;;;;;;;7.50;97.60;;;;;;5003238;28;19909;-69
2021/10/08 00:33:12;;;;;;;;;;;7.40;97.50;;;;;;4995594;28;19932;-68
2021/10/08 00:35:38;;;;;;;;;;;7.30;97.50;;;;;;4995067;28;19914;-69
2021/10/08 00:38:05;;;;;;;;;;;7.30;97.60;;;;;;4994162;28;19921;-68
2021/10/08 00:40:37;;;;;;;;;;;7.30;97.50;;;;;;5001725;28;19917;-68
2021/10/08 00:43:03;;;;;;;;;;;7.30;97.50;;;;;;4993479;28;19916;-69
2021/10/08 00:45:29;;;;;;;;;;;7.30;97.50;;;;;;4996713;28;20375;-69
2021/10/08 00:47:58;;;;;;;;;;;7.10;97.30;;;;;;5001763;28;19920;-68
2021/10/08 00:50:24;;;;;;;;;;;7.10;97.40;;;;;;4999889;28;20016;-67
2021/10/08 00:52:50;;;;;;;;;;;7.10;97.30;;;;;;4996177;28;19909;-68
2021/10/08 00:55:16;;;;;;;;;;;7.10;97.30;;;;;;4993856;28;20153;-68
2021/10/08 00:57:43;;;;;;;;;;;7.00;97.20;;;;;;4997955;28;20000;-69
2021/10/08 01:00:09;;;;;;;;;;;7.10;97.40;;;;;;4994889;28;19917;-68
2021/10/08 01:02:34;;;;;;;;;;;7.00;97.30;;;;;;4993946;28;19980;-68
2021/10/08 01:05:00;;;;;;;;;;;7.00;97.30;;;;;;4996130;28;19952;-68
2021/10/08 01:07:25;;;;;;;;;;;6.90;97.20;;;;;;4993075;28;20334;-68
2021/10/08 01:09:51;;;;;;;;;;;6.90;97.30;;;;;;4999951;28;19913;-67
2021/10/08 01:12:16;;;;;;;;;;;6.80;97.30;;;;;;5003584;28;19914;-71
2021/10/08 01:14:42;;;;;;;;;;;6.80;97.30;;;;;;4993124;28;19913;-68
2021/10/08 01:17:11;;;;;;;;;;;7.00;97.60;;;;;;5003147;28;19967;-68
2021/10/08 01:19:37;;;;;;;;;;;7.00;97.70;;;;;;5004887;28;20262;-68
2021/10/08 01:22:02;;;;;;;;;;;7.00;97.80;;;;;;4991171;28;19921;-68
2021/10/08 01:24:28;;;;;;;;;;;7.00;97.80;;;;;;4998173;28;20461;-68
2021/10/08 01:26:53;;;;;;;;;;;6.90;97.70;;;;;;4995249;28;19909;-69
2021/10/08 01:29:19;;;;;;;;;;;6.90;97.80;;;;;;5002230;28;20680;-68
2021/10/08 01:31:44;;;;;;;;;;;6.90;97.80;;;;;;4999006;28;19920;-68
2021/10/08 01:34:09;;;;;;;;;;;6.90;97.90;;;;;;4994774;28;19964;-68
2021/10/08 01:36:35;;;;;;;;;;;7.00;98.00;;;;;;4993983;28;20312;-68
2021/10/08 01:39:00;;;;;;;;;;;6.90;97.90;;;;;;4998069;28;19910;-68
2021/10/08 01:41:26;;;;;;;;;;;6.90;98.00;;;;;;5007037;28;19940;-68
2021/10/08 01:43:51;;;;;;;;;;;6.90;97.90;;;;;;4999471;28;19996;-68
2021/10/08 01:46:17;;;;;;;;;;;6.90;98.00;;;;;;5003712;28;19913;-68
2021/10/08 01:48:42;;;;;;;;;;;6.90;98.00;;;;;;5001293;28;19914;-68
2021/10/08 01:51:08;;;;;;;;;;;6.90;98.00;;;;;;5002999;28;20385;-68
2021/10/08 01:53:33;;;;;;;;;;;6.90;97.90;;;;;;4999968;28;19917;-68
2021/10/08 01:55:59;;;;;;;;;;;6.90;97.90;;;;;;5005764;28;19909;-67
2021/10/08 01:58:24;;;;;;;;;;;6.90;97.90;;;;;;4999485;28;20040;-67
2021/10/08 02:00:50;;;;;;;;;;;6.90;97.90;;;;;;4998164;28;19909;-68
2021/10/08 02:03:16;;;;;;;;;;;6.90;98.00;;;;;;4991170;28;19917;-68
2021/10/08 02:05:41;;;;;;;;;;;6.90;98.00;;;;;;5004281;28;19918;-67
2021/10/08 02:08:07;;;;;;;;;;;6.90;98.00;;;;;;4995414;28;19924;-67
2021/10/08 02:10:32;;;;;;;;;;;6.80;98.10;;;;;;5004525;28;19913;-67
2021/10/08 02:12:58;;;;;;;;;;;6.90;98.10;;;;;;5000409;28;19983;-66
2021/10/08 02:15:23;;;;;;;;;;;6.80;98.10;;;;;;4998013;28;20025;-67
2021/10/08 02:17:49;;;;;;;;;;;6.80;98.00;;;;;;4996470;28;20277;-68
2021/10/08 02:20:14;;;;;;;;;;;6.70;98.00;;;;;;4992300;28;20311;-66
2021/10/08 02:22:41;;;;;;;;;;;6.70;98.00;;;;;;4995840;28;19914;-68
2021/10/08 02:25:07;;;;;;;;;;;6.80;98.20;;;;;;5002524;28;19917;-68
2021/10/08 02:27:32;;;;;;;;;;;6.80;98.20;;;;;;5003846;28;20032;-67
2021/10/08 02:29:58;;;;;;;;;;;6.80;98.20;;;;;;5004269;28;19918;-68
2021/10/08 02:32:23;;;;;;;;;;;6.70;98.20;;;;;;4994435;28;19910;-67
2021/10/08 02:34:48;;;;;;;;;;;6.70;98.10;;;;;;4999885;28;19914;-67
2021/10/08 02:37:14;;;;;;;;;;;6.60;98.10;;;;;;4992089;28;19913;-68
2021/10/08 02:39:39;;;;;;;;;;;6.60;98.00;;;;;;5005287;28;19913;-68
2021/10/08 02:42:05;;;;;;;;;;;6.50;98.10;;;;;;4998417;28;19983;-66
2021/10/08 02:44:31;;;;;;;;;;;6.50;98.00;;;;;;4996751;28;19975;-68
2021/10/08 02:46:57;;;;;;;;;;;6.40;98.00;;;;;;5002828;28;19914;-68
2021/10/08 02:49:23;;;;;;;;;;;6.50;98.10;;;;;;4997739;28;20003;-67
2021/10/08 02:51:49;;;;;;;;;;;6.50;98.10;;;;;;5002743;28;19909;-67
2021/10/08 02:54:15;;;;;;;;;;;6.50;98.10;;;;;;4997166;28;20247;-67
2021/10/08 02:56:40;;;;;;;;;;;6.50;98.10;;;;;;5000633;28;20117;-68
2021/10/08 02:59:06;;;;;;;;;;;6.50;98.20;;;;;;4996623;28;21119;-67
2021/10/08 03:01:31;;;;;;;;;;;6.50;98.10;;;;;;4991514;28;20182;-66
2021/10/08 03:03:58;;;;;;;;;;;6.50;98.10;;;;;;4998768;28;20373;-67
2021/10/08 03:06:24;;;;;;;;;;;6.50;98.20;;;;;;4997853;28;19917;-67
2021/10/08 03:08:50;;;;;;;;;;;6.40;98.20;;;;;;4992745;28;19991;-69
2021/10/08 03:11:16;;;;;;;;;;;6.40;98.20;;;;;;4996274;28;19913;-69
2021/10/08 03:13:41;;;;;;;;;;;6.40;98.30;;;;;;5000016;28;20028;-67
2021/10/08 03:16:07;;;;;;;;;;;6.40;98.20;;;;;;4995335;28;19913;-69
2021/10/08 03:18:32;;;;;;;;;;;6.40;98.30;;;;;;4999053;28;20356;-70
2021/10/08 03:20:58;;;;;;;;;;;6.40;98.30;;;;;;5003018;28;19913;-70
2021/10/08 03:23:23;;;;;;;;;;;6.40;98.40;;;;;;4994792;28;19963;-69
2021/10/08 03:25:49;;;;;;;;;;;6.30;98.20;;;;;;4992041;28;19941;-70
2021/10/08 03:28:14;;;;;;;;;;;6.30;98.20;;;;;;4995346;28;20399;-69
2021/10/08 03:30:40;;;;;;;;;;;6.20;98.20;;;;;;4997987;28;19914;-70
2021/10/08 03:33:05;;;;;;;;;;;6.20;98.20;;;;;;5000337;28;20010;-70
2021/10/08 03:35:31;;;;;;;;;;;6.10;98.20;;;;;;4996145;28;19910;-70
2021/10/08 03:38:05;;;;;;;;;;;6.10;98.20;;;;;;4991613;28;20354;-70
2021/10/08 03:40:32;;;;;;;;;;;6.10;98.20;;;;;;4999063;28;20337;-70
2021/10/08 03:43:00;;;;;;;;;;;6.10;98.40;;;;;;4996171;28;19952;-70
2021/10/08 03:45:31;;;;;;;;;;;6.10;98.40;;;;;;5002912;28;19957;-70
2021/10/08 03:48:20;;;;;;;;;;;6.10;98.30;;;;;;4997984;28;19916;-70
2021/10/08 03:50:47;;;;;;;;;;;6.10;98.30;;;;;;4999069;28;20245;-70
2021/10/08 03:53:13;;;;;;;;;;;6.00;98.30;;;;;;5002085;28;19913;-70
2021/10/08 03:55:38;;;;;;;;;;;6.00;98.40;;;;;;4998880;28;19920;-70
2021/10/08 03:58:04;;;;;;;;;;;5.90;98.30;;;;;;4998061;28;20365;-69
2021/10/08 04:00:29;;;;;;;;;;;5.90;98.30;;;;;;4992790;28;20362;-70
2021/10/08 04:02:55;;;;;;;;;;;5.90;98.40;;;;;;4995514;28;19918;-70
2021/10/08 04:05:21;;;;;;;;;;;6.00;98.50;;;;;;4997396;28;19910;-69
2021/10/08 04:07:47;;;;;;;;;;;6.10;98.60;;;;;;4991191;28;19916;-67
2021/10/08 04:10:12;;;;;;;;;;;6.10;98.50;;;;;;4993996;28;19917;-68
2021/10/08 04:12:38;;;;;;;;;;;6.10;98.60;;;;;;5000223;28;20007;-69
2021/10/08 04:15:04;;;;;;;;;;;6.10;98.60;;;;;;4999471;28;20371;-69
2021/10/08 04:17:29;;;;;;;;;;;6.10;98.70;;;;;;4993926;28;20479;-69
2021/10/08 04:19:55;;;;;;;;;;;6.10;98.60;;;;;;4997702;28;20012;-65
2021/10/08 04:22:20;;;;;;;;;;;6.00;98.60;;;;;;4997324;28;19923;-66
2021/10/08 04:24:46;;;;;;;;;;;6.00;98.60;;;;;;4995149;28;19920;-64
2021/10/08 04:27:11;;;;;;;;;;;6.00;98.80;;;;;;4998665;28;19965;-64
2021/10/08 04:29:37;;;;;;;;;;;6.00;98.80;;;;;;5006366;28;19916;-64
2021/10/08 04:32:03;;;;;;;;;;;6.00;98.70;;;;;;4994830;28;19967;-64
2021/10/08 04:34:28;;;;;;;;;;;6.00;98.80;;;;;;4992845;28;19909;-65
2021/10/08 04:36:54;;;;;;;;;;;6.00;98.80;;;;;;4986991;28;19909;-65
2021/10/08 04:39:19;;;;;;;;;;;5.90;98.70;;;;;;4990425;28;19913;-65
2021/10/08 04:41:45;;;;;;;;;;;5.90;98.80;;;;;;4994873;28;19918;-65
2021/10/08 04:44:10;;;;;;;;;;;5.90;98.80;;;;;;5001439;28;19988;-65
2021/10/08 04:46:35;;;;;;;;;;;5.80;98.80;;;;;;4998891;28;19909;-65
2021/10/08 04:49:01;;;;;;;;;;;5.80;98.70;;;;;;4994219;28;19921;-65
2021/10/08 04:51:26;;;;;;;;;;;5.70;98.70;;;;;;4994621;28;19917;-65
2021/10/08 04:53:52;;;;;;;;;;;5.70;98.70;;;;;;4996803;28;20449;-64
2021/10/08 04:56:18;;;;;;;;;;;5.70;98.70;;;;;;4991868;28;20360;-64
2021/10/08 04:58:43;;;;;;;;;;;5.60;98.70;;;;;;4993962;28;20450;-64
2021/10/08 05:01:09;;;;;;;;;;;5.60;98.70;;;;;;4997102;28;20012;-64
2021/10/08 05:03:34;;;;;;;;;;;5.70;98.70;;;;;;4996201;28;19909;-63
2021/10/08 05:06:00;;;;;;;;;;;5.70;98.80;;;;;;4998356;28;20306;-64
2021/10/08 05:08:25;;;;;;;;;;;5.70;98.70;;;;;;4991493;28;19944;-64
2021/10/08 05:10:51;;;;;;;;;;;5.80;98.80;;;;;;4993500;28;19909;-63
2021/10/08 05:13:16;;;;;;;;;;;5.70;98.80;;;;;;4991952;28;19913;-64
2021/10/08 05:15:42;;;;;;;;;;;5.70;98.80;;;;;;4993990;28;19910;-64
2021/10/08 05:18:08;;;;;;;;;;;5.70;98.80;;;;;;4994445;28;19909;-62
2021/10/08 05:20:33;;;;;;;;;;;5.70;98.70;;;;;;4996986;28;19916;-63
2021/10/08 05:22:59;;;;;;;;;;;5.60;98.70;;;;;;4990703;28;19910;-64
2021/10/08 05:25:24;;;;;;;;;;;5.60;98.70;;;;;;4992375;28;20085;-64
2021/10/08 05:27:50;;;;;;;;;;;5.60;98.80;;;;;;4987439;28;19916;-63
2021/10/08 05:30:16;;;;;;;;;;;5.60;98.80;;;;;;5002577;28;20000;-64
2021/10/08 05:32:41;;;;;;;;;;;5.60;98.80;;;;;;5000991;28;20272;-64
2021/10/08 05:35:07;;;;;;;;;;;5.70;98.90;;;;;;4992355;28;19925;-64
2021/10/08 05:37:33;;;;;;;;;;;5.60;98.80;;;;;;4989806;28;20257;-64
2021/10/08 05:39:59;;;;;;;;;;;5.70;98.80;;;;;;4993226;28;19917;-62
2021/10/08 05:42:24;;;;;;;;;;;5.70;98.90;;;;;;4986786;28;19972;-64
2021/10/08 05:44:50;;;;;;;;;;;5.70;98.90;;;;;;4990326;28;20443;-64
2021/10/08 05:47:15;;;;;;;;;;;5.70;98.80;;;;;;4994148;28;19910;-63
2021/10/08 05:49:41;;;;;;;;;;;5.70;98.80;;;;;;4997609;28;20556;-65
2021/10/08 05:52:06;;;;;;;;;;;5.70;98.80;;;;;;5000745;28;19918;-64
2021/10/08 05:54:32;;;;;;;;;;;5.70;98.90;;;;;;5003015;28;19945;-63
2021/10/08 05:56:57;;;;;;;;;;;5.70;98.90;;;;;;4999887;28;19917;-65
2021/10/08 05:59:22;;;;;;;;;;;5.70;98.80;;;;;;4998330;28;20385;-65
2021/10/08 06:01:48;;;;;;;;;;;5.70;98.90;;;;;;4987831;28;19921;-64
2021/10/08 06:04:13;;;;;;;;;;;5.70;98.80;;;;;;5005236;28;19909;-65
2021/10/08 06:06:39;;;;;;;;;;;5.70;98.90;;;;;;4997668;28;19957;-65
2021/10/08 06:09:05;;;;;;;;;;;5.70;98.90;;;;;;5002512;28;20012;-65
2021/10/08 06:11:30;;;;;;;;;;;5.90;99.00;;;;;;5000930;28;19916;-64
2021/10/08 06:13:56;;;;;;;;;;;5.80;98.90;;;;;;4996660;28;19910;-64
2021/10/08 06:16:21;;;;;;;;;;;5.90;98.90;;;;;;4998495;28;19916;-65
2021/10/08 06:18:47;;;;;;;;;;;5.90;98.90;;;;;;4994213;28;19909;-65
2021/10/08 06:21:12;;;;;;;;;;;5.80;98.90;;;;;;4999984;28;19918;-65
2021/10/08 06:23:38;;;;;;;;;;;5.80;98.90;;;;;;4996423;28;19916;-65
2021/10/08 06:26:05;;;;;;;;;;;5.90;98.90;;;;;;4998040;28;19956;-64
2021/10/08 06:28:30;;;;;;;;;;;5.90;98.90;;;;;;5001340;28;19909;-65
2021/10/08 06:30:56;;;;;;;;;;;6.00;98.90;;;;;;5002702;28;19980;-64
2021/10/08 06:33:21;;;;;;;;;;;6.00;98.90;;;;;;5001136;28;19913;-65
2021/10/08 06:35:47;;;;;;;;;;;6.00;98.90;;;;;;4995380;28;20288;-65
2021/10/08 06:38:12;;;;;;;;;;;6.10;98.90;;;;;;4995621;28;20004;-65
2021/10/08 06:40:38;;;;;;;;;;;6.10;98.90;;;;;;5001989;28;20284;-65
2021/10/08 06:43:04;;;;;;;;;;;6.10;98.90;;;;;;4995638;28;20300;-64
2021/10/08 06:45:30;;;;;;;;;;;6.20;99.00;;;;;;5002823;28;20433;-65
2021/10/08 06:47:55;;;;;;;;;;;6.20;98.90;;;;;;4996101;28;19914;-64
2021/10/08 06:50:21;;;;;;;;;;;6.30;99.00;;;;;;4997849;28;19921;-65
2021/10/08 06:52:46;;;;;;;;;;;6.40;99.00;;;;;;4997777;28;20156;-65
2021/10/08 06:55:12;;;;;;;;;;;6.40;99.00;;;;;;4998058;28;19913;-64
2021/10/08 06:57:37;;;;;;;;;;;6.50;99.00;;;;;;4994207;28;19910;-65
2021/10/08 07:00:04;;;;;;;;;;;6.60;99.10;;;;;;4994628;28;19917;-65
2021/10/08 07:02:30;;;;;;;;;;;6.60;99.10;;;;;;4991911;28;20304;-65
2021/10/08 07:04:55;;;;;;;;;;;6.60;99.10;;;;;;5000824;28;19924;-64
2021/10/08 07:07:21;;;;;;;;;;;6.80;99.20;;;;;;4998086;28;19920;-65
2021/10/08 07:09:46;;;;;;;;;;;7.00;99.30;;;;;;4995374;28;20273;-65
2021/10/08 07:12:12;;;;;;;;;;;7.20;99.30;;;;;;4990503;28;20364;-64
2021/10/08 07:14:38;;;;;;;;;;;7.30;99.40;;;;;;4993851;28;19956;-64
2021/10/08 07:17:03;;;;;;;;;;;7.50;99.40;;;;;;5005667;28;20377;-64
2021/10/08 07:19:30;;;;;;;;;;;7.60;99.40;;;;;;5000847;28;19917;-65
2021/10/08 07:21:56;;;;;;;;;;;7.70;99.30;;;;;;4988336;28;19917;-66
2021/10/08 07:24:21;;;;;;;;;;;7.80;99.30;;;;;;4996987;28;20028;-64
2021/10/08 07:26:47;;;;;;;;;;;7.90;99.30;;;;;;5000780;28;19914;-65
2021/10/08 07:29:12;;;;;;;;;;;8.10;99.40;;;;;;5003659;28;20394;-65
2021/10/08 07:31:38;;;;;;;;;;;8.20;99.30;;;;;;5003862;28;19909;-64
2021/10/08 07:34:03;;;;;;;;;;;8.40;99.30;;;;;;4993480;28;20442;-64
2021/10/08 07:36:29;;;;;;;;;;;8.40;99.10;;;;;;4992606;28;19909;-65
2021/10/08 07:38:55;;;;;;;;;;;8.50;99.00;;;;;;4997559;28;19913;-64
2021/10/08 07:41:20;;;;;;;;;;;8.60;99.00;;;;;;4994282;28;20399;-64
2021/10/08 07:43:46;;;;;;;;;;;8.60;98.80;;;;;;4999089;28;19914;-65
2021/10/08 07:46:12;;;;;;;;;;;8.80;98.80;;;;;;4994195;28;19913;-65
2021/10/08 07:48:38;;;;;;;;;;;8.80;98.80;;;;;;4997287;28;20330;-64
2021/10/08 07:51:04;;;;;;;;;;;9.00;98.70;;;;;;4993516;28;20041;-64
2021/10/08 07:53:31;;;;;;;;;;;9.00;98.60;;;;;;4995725;28;20276;-65
2021/10/08 07:55:57;;;;;;;;;;;9.20;98.60;;;;;;4996615;28;19961;-65
2021/10/08 07:58:26;;;;;;;;;;;9.40;98.50;;;;;;4998621;28;19960;-65
2021/10/08 08:00:53;;;;;;;;;;;9.50;98.20;;;;;;4992863;28;20407;-64
2021/10/08 08:03:18;;;;;;;;;;;9.70;98.20;;;;;;4994477;28;19920;-65
2021/10/08 08:05:44;;;;;;;;;;;9.90;97.80;;;;;;5000046;28;19913;-65
2021/10/08 08:08:09;;;;;;;;;;;10.10;97.60;;;;;;4997342;28;20368;-65
2021/10/08 08:10:35;;;;;;;;;;;10.30;97.60;;;;;;4997174;28;19921;-65
2021/10/08 08:13:00;;;;;;;;;;;10.70;97.10;;;;;;4995267;28;19956;-65
2021/10/08 08:15:26;;;;;;;;;;;11.00;96.60;;;;;;4997026;28;20356;-65
2021/10/08 08:17:51;;;;;;;;;;;11.20;96.20;;;;;;4988096;28;19909;-66
2021/10/08 08:20:17;;;;;;;;;;;11.40;95.90;;;;;;4998329;28;20055;-66
2021/10/08 08:22:42;;;;;;;;;;;11.50;95.00;;;;;;4993234;28;19914;-65
2021/10/08 08:25:08;;;;;;;;;;;11.80;94.60;;;;;;4991495;28;19917;-65
2021/10/08 08:27:34;;;;;;;;;;;12.10;93.70;;;;;;4993050;28;19939;-64
2021/10/08 08:30:01;;;;;;;;;;;12.50;93.20;;;;;;4990355;28;20019;-64
2021/10/08 08:32:27;;;;;;;;;;;12.70;92.50;;;;;;4990763;28;19912;-64
2021/10/08 08:34:52;;;;;;;;;;;12.80;90.30;;;;;;4993669;28;19910;-65
2021/10/08 08:37:18;;;;;;;;;;;13.10;90.10;;;;;;4989561;28;19963;-66
2021/10/08 08:39:45;;;;;;;;;;;13.50;89.10;;;;;;4990706;28;20432;-65
2021/10/08 08:42:10;;;;;;;;;;;13.60;89.60;;;;;;4988995;28;20189;-65
2021/10/08 08:44:36;;;;;;;;;;;13.60;86.70;;;;;;4990095;28;19949;-65
2021/10/08 08:47:02;;;;;;;;;;;13.80;86.70;;;;;;4991704;28;19917;-65
2021/10/08 08:49:28;;;;;;;;;;;14.00;85.40;;;;;;4998837;28;19917;-65
2021/10/08 08:51:54;;;;;;;;;;;14.20;86.50;;;;;;4994551;28;20064;-65
2021/10/08 08:54:19;;;;;;;;;;;14.40;85.70;;;;;;4989554;28;19966;-64
2021/10/08 08:56:45;;;;;;;;;;;14.50;83.70;;;;;;4995446;28;19917;-65
2021/10/08 08:59:11;;;;;;;;;;;14.60;83.20;;;;;;4988598;28;19936;-65
2021/10/08 09:01:57;;;;;;;;;;;14.70;82.00;;;;;;4991899;28;20806;-66
2021/10/08 09:04:24;;;;;;;;;;;15.00;83.20;;;;;;4992828;28;20321;-64
2021/10/08 09:06:49;;;;;;;;;;;15.20;83.10;;;;;;4992122;28;19956;-65
2021/10/08 09:09:15;;;;;;;;;;;15.40;82.30;;;;;;4994103;28;19929;-65
2021/10/08 09:11:41;;;;;;;;;;;15.30;80.10;;;;;;4994695;28;19909;-65
2021/10/08 09:14:20;;;;;;;;;;;15.50;79.80;;;;;;4998080;28;20000;-65
2021/10/08 09:17:04;;;;;;;;;;;15.60;80.60;;;;;;4999099;28;20051;-65
2021/10/08 09:19:49;;;;;;;;;;;15.70;79.10;;;;;;4992464;28;20372;-65
2021/10/08 09:22:15;;;;;;;;;;;15.90;78.70;;;;;;4992260;28;19913;-65
2021/10/08 09:24:42;;;;;;;;;;;16.00;77.70;;;;;;4994889;28;20278;-65
2021/10/08 09:27:19;;;;;;;;;;;16.10;76.30;;;;;;4992214;28;20372;-65
2021/10/08 09:29:46;;;;;;;;;;;16.20;77.50;;;;;;4998696;28;19917;-64
2021/10/08 09:32:11;;;;;;;;;;;16.50;75.80;;;;;;5000401;28;19920;-65
2021/10/08 09:34:37;;;;;;;;;;;16.60;75.40;;;;;;5001249;28;20303;-65
2021/10/08 09:37:05;;;;;;;;;;;16.50;73.20;;;;;;4993381;28;19913;-65
2021/10/08 09:39:33;;;;;;;;;;;16.80;76.90;;;;;;5001663;28;19924;-65
2021/10/08 09:42:00;;;;;;;;;;;17.10;74.20;;;;;;4997064;28;19917;-65
2021/10/08 09:44:27;;;;;;;;;;;17.00;76.10;;;;;;4991161;28;19910;-65
2021/10/08 09:47:06;;;;;;;;;;;17.10;74.90;;;;;;5000514;28;19909;-66
2021/10/08 09:49:31;;;;;;;;;;;17.40;74.30;;;;;;5003300;28;19913;-65
2021/10/08 09:51:57;;;;;;;;;;;17.60;73.60;;;;;;4999542;28;19972;-65
2021/10/08 09:54:22;;;;;;;;;;;17.50;73.40;;;;;;4997684;28;19956;-65
2021/10/08 09:56:58;;;;;;;;;;;17.70;71.70;;;;;;4995603;28;19913;-65
2021/10/08 09:59:37;;;;;;;;;;;17.60;72.20;;;;;;4995151;28;20004;-65
2021/10/08 10:02:03;;;;;;;;;;;17.90;71.00;;;;;;4987428;28;19953;-65
2021/10/08 10:04:43;;;;;;;;;;;17.90;70.10;;;;;;4995334;28;19913;-65
2021/10/08 10:07:09;;;;;;;;;;;18.00;72.00;;;;;;4999852;28;19984;-65
2021/10/08 10:09:35;;;;;;;;;;;17.80;71.40;;;;;;5003482;28;20363;-64
2021/10/08 10:12:01;;;;;;;;;;;17.80;69.20;;;;;;4998821;28;19913;-65
2021/10/08 10:14:26;;;;;;;;;;;17.60;70.80;;;;;;4993177;28;19910;-64
2021/10/08 10:16:52;;;;;;;;;;;18.00;69.40;;;;;;4995555;28;20092;-65
2021/10/08 10:19:17;;;;;;;;;;;17.90;67.20;;;;;;5009088;28;20190;-66
2021/10/08 10:21:43;;;;;;;;;;;18.00;66.40;;;;;;4993339;28;19909;-65
2021/10/08 10:24:09;;;;;;;;;;;18.20;67.20;;;;;;4997935;28;19928;-66
2021/10/08 10:26:34;;;;;;;;;;;18.30;68.80;;;;;;4998217;28;19917;-66
2021/10/08 10:29:01;;;;;;;;;;;18.50;66.90;;;;;;4996246;28;20419;-66
2021/10/08 10:31:27;;;;;;;;;;;18.30;66.80;;;;;;4996672;28;19917;-66
2021/10/08 10:33:58;;;;;;;;;;;18.40;65.80;;;;;;4999953;28;19925;-66
2021/10/08 10:36:27;;;;;;;;;;;18.30;67.00;;;;;;4990978;28;20983;-66
2021/10/08 10:39:11;;;;;;;;;;;18.70;67.60;;;;;;4994417;28;20296;-66
2021/10/08 10:41:37;;;;;;;;;;;18.90;67.70;;;;;;4999016;28;19941;-66
2021/10/08 10:44:23;;;;;;;;;;;18.60;65.10;;;;;;4996360;28;19913;-66
2021/10/08 10:52:02;;;;;;;;;;;18.90;66.00;;;;;;5001603;28;19914;-66
2021/10/08 10:54:34;;;;;;;;;;;18.60;65.80;;;;;;4999124;28;19909;-66
2021/10/08 10:57:02;;;;;;;;;;;19.00;66.40;;;;;;4999606;28;20129;-66
2021/10/08 10:59:29;;;;;;;;;;;19.10;66.40;;;;;;5003238;28;19913;-65
2021/10/08 11:02:08;;;;;;;;;;;19.20;65.60;;;;;;4991053;28;20379;-65
2021/10/08 11:04:35;;;;;;;;;;;19.30;66.40;;;;;;4996500;28;20273;-66
2021/10/08 11:07:03;;;;;;;;;;;19.10;64.40;;;;;;4995477;28;19913;-65
2021/10/08 11:09:29;;;;;;;;;;;19.30;65.20;;;;;;4996777;28;19917;-66
2021/10/08 11:12:20;;;;;;;;;;;19.50;65.50;;;;;;5001191;28;19913;-67
2021/10/08 11:14:46;;;;;;;;;;;19.40;64.40;;;;;;4990549;28;20168;-66
2021/10/08 11:17:30;;;;;;;;;;;19.60;64.40;;;;;;4995630;28;20205;-65
2021/10/08 11:19:55;;;;;;;;;;;19.50;64.00;;;;;;4997376;28;20498;-66
2021/10/08 11:22:41;;;;;;;;;;;19.60;63.40;;;;;;4995841;28;19913;-66
2021/10/08 11:25:07;;;;;;;;;;;20.00;62.50;;;;;;5003206;28;19997;-67
2021/10/08 11:27:33;;;;;;;;;;;20.00;62.20;;;;;;4996630;28;19940;-67
2021/10/08 11:30:05;;;;;;;;;;;20.30;61.90;;;;;;4996372;28;19909;-66
2021/10/08 11:32:33;;;;;;;;;;;20.40;59.20;;;;;;4996536;28;20292;-67
2021/10/08 11:34:58;;;;;;;;;;;20.70;60.50;;;;;;5002363;28;19916;-67
2021/10/08 11:37:28;;;;;;;;;;;20.70;59.90;;;;;;4993980;28;19906;-66
2021/10/08 11:39:54;;;;;;;;;;;20.20;58.40;;;;;;5012164;28;20190;-67
2021/10/08 11:42:21;;;;;;;;;;;20.00;59.60;;;;;;4998552;28;19909;-67
2021/10/08 11:45:06;;;;;;;;;;;20.20;58.40;;;;;;5000517;28;19932;-66
2021/10/08 11:47:50;;;;;;;;;;;20.80;59.60;;;;;;4990277;28;19913;-65
2021/10/08 11:52:58;;;;;;;;;;;20.30;55.80;;;;;;4998578;28;20436;-67
2021/10/08 11:55:27;;;;;;;;;;;20.90;55.50;;;;;;4998791;28;19909;-65
2021/10/08 11:58:00;;;;;;;;;;;21.10;56.50;;;;;;4998797;28;19913;-66
2021/10/08 12:00:36;;;;;;;;;;;21.00;55.10;;;;;;4995598;28;20348;-66
2021/10/08 12:03:03;;;;;;;;;;;21.20;55.50;;;;;;4994480;28;19915;-65
2021/10/08 12:05:39;;;;;;;;;;;21.80;52.90;;;;;;4999009;28;20448;-66
2021/10/08 12:08:05;;;;;;;;;;;21.80;51.60;;;;;;4988887;28;19914;-66
2021/10/08 12:10:30;;;;;;;;;;;21.90;53.90;;;;;;4992165;28;20407;-66
2021/10/08 12:12:57;;;;;;;;;;;22.00;53.30;;;;;;5001254;28;19916;-66
2021/10/08 12:15:23;;;;;;;;;;;21.70;53.10;;;;;;4994049;28;20385;-64
2021/10/08 12:17:50;;;;;;;;;;;21.80;53.40;;;;;;4993847;28;20242;-66
2021/10/08 12:20:19;;;;;;;;;;;21.90;54.10;;;;;;5002238;28;19924;-66
2021/10/08 12:22:45;;;;;;;;;;;22.00;53.30;;;;;;4997229;28;20115;-66
2021/10/08 12:25:10;;;;;;;;;;;22.20;53.50;;;;;;4998365;28;19909;-65
2021/10/08 12:27:36;;;;;;;;;;;22.50;51.00;;;;;;5008081;28;19916;-66
2021/10/08 12:30:02;;;;;;;;;;;22.70;51.00;;;;;;4995301;28;19968;-66
2021/10/08 12:32:28;;;;;;;;;;;22.60;51.50;;;;;;4999122;28;19921;-66
2021/10/08 12:34:54;;;;;;;;;;;22.90;51.50;;;;;;5000792;28;20351;-66
2021/10/08 12:37:29;;;;;;;;;;;23.60;49.80;;;;;;4996566;28;20029;-67
2021/10/08 12:39:57;;;;;;;;;;;23.70;50.40;;;;;;4996860;28;19910;-66
2021/10/08 12:42:25;;;;;;;;;;;23.70;49.20;;;;;;5007502;28;20541;-64
2021/10/08 12:44:52;;;;;;;;;;;24.00;49.70;;;;;;5000011;28;19916;-64
2021/10/08 12:50:05;;;;;;;;;;;22.80;54.50;;;;;;4996274;28;19921;-64
2021/10/08 12:52:30;;;;;;;;;;;22.00;54.50;;;;;;4996736;28;19909;-64
2021/10/08 12:55:11;;;;;;;;;;;22.50;54.40;;;;;;5000020;28;20328;-63
2021/10/08 12:57:38;;;;;;;;;;;22.90;54.20;;;;;;5002406;28;20060;-64
2021/10/08 13:00:04;;;;;;;;;;;23.00;53.40;;;;;;5002366;28;19910;-63
2021/10/08 13:02:46;;;;;;;;;;;23.00;52.20;;;;;;4992446;28;19937;-63
2021/10/08 13:05:12;;;;;;;;;;;22.90;52.90;;;;;;5001806;28;19913;-64
2021/10/08 13:07:37;;;;;;;;;;;22.60;53.00;;;;;;4999953;28;20008;-65
2021/10/08 13:10:05;;;;;;;;;;;21.50;55.70;;;;;;5000339;28;20346;-63
2021/10/08 13:12:40;;;;;;;;;;;20.40;57.90;;;;;;5002920;28;19909;-63
2021/10/08 13:15:10;;;;;;;;;;;20.20;59.10;;;;;;5003347;28;19917;-63
2021/10/08 13:17:35;;;;;;;;;;;20.60;59.10;;;;;;5002350;28;20156;-65
2021/10/08 13:20:04;;;;;;;;;;;21.50;55.20;;;;;;5004456;28;20482;-65
2021/10/08 13:22:32;;;;;;;;;;;22.10;52.70;;;;;;4998614;28;19936;-63
2021/10/08 13:24:58;;;;;;;;;;;22.60;54.20;;;;;;4996368;28;19909;-64
2021/10/08 13:27:24;;;;;;;;;;;23.30;53.50;;;;;;5002197;28;20004;-64
2021/10/08 13:29:50;;;;;;;;;;;24.20;51.20;;;;;;5006323;28;20269;-65
2021/10/08 13:32:15;;;;;;;;;;;24.30;51.30;;;;;;5000601;28;19937;-65
2021/10/08 13:34:42;;;;;;;;;;;24.30;50.60;;;;;;5000963;28;19913;-63
2021/10/08 13:37:08;;;;;;;;;;;24.00;52.10;;;;;;4993596;28;19926;-64
2021/10/08 13:39:34;;;;;;;;;;;23.00;54.30;;;;;;4996847;28;19917;-65
2021/10/08 13:41:59;;;;;;;;;;;22.40;56.80;;;;;;4999453;28;19913;-63
2021/10/08 13:44:25;;;;;;;;;;;21.50;59.10;;;;;;5004843;28;19913;-65
2021/10/08 13:46:50;;;;;;;;;;;22.00;59.40;;;;;;5011646;28;19920;-65
2021/10/08 13:49:16;;;;;;;;;;;22.60;57.10;;;;;;5001878;28;19979;-65
2021/10/08 13:51:41;;;;;;;;;;;23.00;56.80;;;;;;4997788;28;20006;-64
2021/10/08 13:54:07;;;;;;;;;;;23.60;54.90;;;;;;4999554;28;19992;-65
2021/10/08 13:56:33;;;;;;;;;;;23.90;54.30;;;;;;4995773;28;19914;-64
2021/10/08 13:58:58;;;;;;;;;;;24.30;52.30;;;;;;5000373;28;20377;-66
2021/10/08 14:01:24;;;;;;;;;;;24.50;50.80;;;;;;4992782;28;20041;-65
2021/10/08 14:04:14;;;;;;;;;;;23.60;52.70;;;;;;4998323;28;19948;-64
2021/10/08 14:10:15;;;;;;;;;;;22.50;55.90;;;;;;5000559;28;19917;-65
2021/10/08 14:11:59;;;;;;;;;;;21.60;58.20;;;;;;5004351;28;19910;-63
2021/10/08 14:14:24;;;;;;;;;;;21.10;60.30;;;;;;5006092;28;19910;-64
2021/10/08 14:16:50;;;;;;;;;;;20.20;63.00;;;;;;4993299;28;19913;-63
2021/10/08 14:19:15;;;;;;;;;;;20.30;63.70;;;;;;4993787;28;19914;-65
2021/10/08 14:21:41;;;;;;;;;;;20.60;64.00;;;;;;5000867;28;19916;-64
2021/10/08 14:24:06;;;;;;;;;;;21.50;60.60;;;;;;4999211;28;19980;-64
2021/10/08 14:26:32;;;;;;;;;;;20.90;59.00;;;;;;5009307;28;20102;-64
2021/10/08 14:28:57;;;;;;;;;;;20.50;62.00;;;;;;5006004;28;20399;-64
2021/10/08 14:31:23;;;;;;;;;;;20.90;61.90;;;;;;5005031;28;19921;-64
2021/10/08 14:33:48;;;;;;;;;;;20.70;60.70;;;;;;4996348;28;19918;-65
2021/10/08 14:36:14;;;;;;;;;;;20.70;60.90;;;;;;4993706;28;20091;-65